Time;durP1;ratioP1;P1;durP2;ratioP2;P2;SDS_P1;SDS_P2;PMS_P1;PMS_P2;Temp;Humidity;BMP_temperature;BMP_pressure;BME280_temperature;BME280_humidity;BME280_pressure;Samples;Min_cycle;Max_cycle;Signal;HPM_P1;HPM_P2
2024/02/27 00:00:06;;;;;;;14.50;9.30;;;;;;;3.04;100.00;101204.33;105766;1277;73017;-57
2024/02/27 00:02:38;;;;;;;19.50;10.50;;;;;;;3.02;100.00;101203.77;106697;1261;66147;-57
2024/02/27 00:05:05;;;;;;;24.20;12.30;;;;;;;3.00;100.00;101202.33;105656;1264;71134;-56
2024/02/27 00:07:33;;;;;;;24.40;11.40;;;;;;;2.97;100.00;101202.87;105737;1261;60012;-57
2024/02/27 00:10:01;;;;;;;27.60;11.20;;;;;;;2.92;100.00;101203.54;105592;1267;59685;-57
2024/02/27 00:12:28;;;;;;;26.20;12.80;;;;;;;2.89;100.00;101198.37;107028;1261;73105;-57
2024/02/27 00:14:56;;;;;;;27.40;12.80;;;;;;;2.86;100.00;101199.08;105686;1261;67246;-57
2024/02/27 00:17:23;;;;;;;25.30;11.00;;;;;;;2.83;100.00;101197.10;105643;1260;71499;-57
2024/02/27 00:19:51;;;;;;;21.70;12.10;;;;;;;2.81;100.00;101195.84;105577;1263;60956;-57
2024/02/27 00:22:18;;;;;;;20.50;11.90;;;;;;;2.78;100.00;101194.60;105812;1273;60918;-57
2024/02/27 00:24:46;;;;;;;22.80;11.40;;;;;;;2.76;100.00;101188.72;105700;1264;72170;-56
2024/02/27 00:27:13;;;;;;;24.00;10.00;;;;;;;2.74;100.00;101189.05;105676;1264;65079;-57
2024/02/27 00:29:40;;;;;;;18.80;10.90;;;;;;;2.72;100.00;101183.04;105758;1257;72012;-57
2024/02/27 00:32:08;;;;;;;19.80;10.00;;;;;;;2.70;100.00;101178.77;105813;1264;59612;-57
2024/02/27 00:34:35;;;;;;;23.40;11.60;;;;;;;2.68;100.00;101179.64;105716;1261;60026;-57
2024/02/27 00:37:03;;;;;;;20.90;11.10;;;;;;;2.65;100.00;101175.89;106012;1260;72351;-57
2024/02/27 00:39:30;;;;;;;21.30;11.30;;;;;;;2.64;100.00;101176.41;105726;1263;66771;-57
2024/02/27 00:41:58;;;;;;;16.40;10.80;;;;;;;2.60;100.00;101176.04;105631;1274;72894;-57
2024/02/27 00:44:26;;;;;;;21.00;12.00;;;;;;;2.56;100.00;101175.30;105920;1261;59902;-57
2024/02/27 00:46:53;;;;;;;21.10;11.00;;;;;;;2.53;100.00;101175.11;105556;1265;59642;-57
2024/02/27 00:49:20;;;;;;;18.50;11.60;;;;;;;2.50;100.00;101167.46;105697;1274;70789;-57
2024/02/27 00:51:48;;;;;;;20.00;11.60;;;;;;;2.45;100.00;101166.19;105711;1263;68096;-57
2024/02/27 00:54:16;;;;;;;20.40;10.90;;;;;;;2.41;100.00;101167.40;105665;1264;71365;-57
2024/02/27 00:56:43;;;;;;;22.00;11.10;;;;;;;2.37;100.00;101168.98;105811;1261;59682;-57
2024/02/27 00:59:10;;;;;;;19.90;10.10;;;;;;;2.34;100.00;101166.46;105837;1262;59523;-56
2024/02/27 01:01:38;;;;;;;20.10;10.60;;;;;;;2.31;100.00;101159.36;105906;1263;71889;-57
2024/02/27 01:04:05;;;;;;;24.40;10.90;;;;;;;2.29;100.00;101151.38;105981;1257;66612;-56
2024/02/27 01:06:33;;;;;;;15.90;9.30;;;;;;;2.29;100.00;101152.27;105750;1264;71435;-57
2024/02/27 01:09:00;;;;;;;21.60;9.90;;;;;;;2.29;100.00;101155.80;105912;1263;60503;-57
2024/02/27 01:11:28;;;;;;;20.80;10.00;;;;;;;2.29;100.00;101149.79;106327;1270;60091;-57
2024/02/27 01:13:55;;;;;;;21.20;10.70;;;;;;;2.30;100.00;101147.48;106040;1258;74536;-57
2024/02/27 01:16:23;;;;;;;23.10;10.10;;;;;;;2.31;100.00;101150.30;106120;1256;65646;-57
2024/02/27 01:18:50;;;;;;;23.70;12.60;;;;;;;2.29;100.00;101143.41;106069;1270;72926;-57
2024/02/27 01:21:18;;;;;;;23.60;12.80;;;;;;;2.26;100.00;101140.18;106044;1258;60006;-56
2024/02/27 01:23:46;;;;;;;22.30;13.20;;;;;;;2.21;100.00;101137.14;105960;1259;59788;-56
2024/02/27 01:26:13;;;;;;;26.10;13.50;;;;;;;2.16;100.00;101141.52;106260;1254;70827;-56
2024/02/27 01:28:40;;;;;;;20.80;13.20;;;;;;;2.10;100.00;101139.54;106020;1255;67697;-56
2024/02/27 01:31:08;;;;;;;24.00;13.90;;;;;;;2.05;100.00;101138.77;106051;1260;72832;-56
2024/02/27 01:33:35;;;;;;;27.40;14.30;;;;;;;2.01;100.00;101142.64;106030;1258;59618;-57
2024/02/27 01:36:03;;;;;;;26.50;14.90;;;;;;;1.94;100.00;101135.86;106096;1260;59644;-58
2024/02/27 01:38:30;;;;;;;26.10;15.10;;;;;;;1.88;100.00;101144.84;106018;1261;73513;-56
2024/02/27 01:40:58;;;;;;;26.70;13.10;;;;;;;1.83;100.00;101145.31;105980;1258;67599;-57
2024/02/27 01:43:26;;;;;;;23.30;12.60;;;;;;;1.79;100.00;101140.33;106069;1256;73900;-57
2024/02/27 01:46:06;;;;;;;26.80;13.00;;;;;;;1.77;100.00;101136.07;106049;1257;59794;-57
2024/02/27 01:48:33;;;;;;;23.70;12.10;;;;;;;1.74;100.00;101132.66;106004;1256;60086;-58
2024/02/27 01:51:01;;;;;;;27.50;12.50;;;;;;;1.72;100.00;101129.63;106067;1257;72993;-57
2024/02/27 01:53:29;;;;;;;25.20;12.40;;;;;;;1.71;100.00;101126.08;106239;1254;64815;-57
2024/02/27 01:55:57;;;;;;;25.30;14.00;;;;;;;1.69;100.00;101123.96;106313;1259;72782;-57
2024/02/27 01:58:24;;;;;;;24.50;13.20;;;;;;;1.66;100.00;101126.74;106067;1254;60515;-58
2024/02/27 02:00:51;;;;;;;32.00;13.20;;;;;;;1.63;100.00;101129.37;106006;1259;59760;-57
2024/02/27 02:03:21;;;;;;;23.00;13.50;;;;;;;1.60;100.00;101125.80;105943;1256;71225;-58
2024/02/27 02:05:49;;;;;;;24.80;14.60;;;;;;;1.57;100.00;101123.64;105945;1260;65794;-57
2024/02/27 02:08:16;;;;;;;24.50;13.00;;;;;;;1.54;100.00;101128.04;106580;1260;72724;-57
2024/02/27 02:10:44;;;;;;;27.50;14.40;;;;;;;1.51;100.00;101129.98;105948;1258;60600;-57
2024/02/27 02:13:11;;;;;;;27.90;14.60;;;;;;;1.47;100.00;101125.85;106048;1258;60803;-58
2024/02/27 02:15:38;;;;;;;29.60;14.20;;;;;;;1.43;100.00;101124.40;105876;1256;72214;-58
2024/02/27 02:18:06;;;;;;;28.40;13.80;;;;;;;1.40;100.00;101123.83;105929;1261;67562;-58
2024/02/27 02:20:34;;;;;;;24.80;12.40;;;;;;;1.37;100.00;101123.79;105965;1259;70486;-57
2024/02/27 02:23:01;;;;;;;24.10;12.30;;;;;;;1.34;100.00;101118.84;106054;1259;60855;-58
2024/02/27 02:25:30;;;;;;;30.40;14.40;;;;;;;1.34;100.00;101121.14;106120;1260;60617;-58
2024/02/27 02:27:58;;;;;;;25.20;12.80;;;;;;;1.34;100.00;101119.36;105971;1260;71871;-59
2024/02/27 02:30:25;;;;;;;26.30;12.10;;;;;;;1.35;100.00;101120.44;106136;1258;65540;-56
2024/02/27 02:32:52;;;;;;;22.40;12.30;;;;;;;1.36;100.00;101121.49;106127;1254;72666;-55
2024/02/27 02:35:20;;;;;;;22.90;13.40;;;;;;;1.36;100.00;101119.55;106005;1259;60297;-58
2024/02/27 02:37:49;;;;;;;24.60;13.50;;;;;;;1.36;100.00;101116.89;106167;1261;59702;-55
2024/02/27 02:40:17;;;;;;;21.90;12.80;;;;;;;1.36;100.00;101116.55;107443;1254;73214;-56
2024/02/27 02:42:45;;;;;;;29.40;14.90;;;;;;;1.35;100.00;101115.30;106089;1258;65899;-55
2024/02/27 02:45:13;;;;;;;26.10;13.80;;;;;;;1.32;100.00;101115.09;106042;1254;73262;-56
2024/02/27 02:47:40;;;;;;;26.90;14.40;;;;;;;1.30;100.00;101115.40;106273;1254;60663;-55
2024/02/27 02:50:08;;;;;;;22.10;12.90;;;;;;;1.26;100.00;101117.14;106497;1254;59709;-55
2024/02/27 02:52:36;;;;;;;26.30;14.50;;;;;;;1.21;100.00;101121.85;107355;1253;71767;-55
2024/02/27 02:55:05;;;;;;;23.90;13.70;;;;;;;1.15;100.00;101116.31;105961;1253;67032;-56
2024/02/27 02:57:33;;;;;;;25.00;14.60;;;;;;;1.09;100.00;101115.37;106103;1258;72647;-55
2024/02/27 03:00:01;;;;;;;21.20;13.40;;;;;;;1.03;100.00;101111.58;106202;1260;60379;-56
2024/02/27 03:02:30;;;;;;;24.90;12.80;;;;;;;0.98;100.00;101113.46;106204;1252;60416;-55
2024/02/27 03:04:58;;;;;;;19.80;10.90;;;;;;;0.95;100.00;101115.34;106114;1253;73982;-59
2024/02/27 03:07:25;;;;;;;23.50;11.30;;;;;;;0.94;100.00;101118.16;106005;1260;65660;-56
2024/02/27 03:09:52;;;;;;;26.00;10.90;;;;;;;0.94;100.00;101112.14;106079;1260;72196;-54
2024/02/27 03:12:21;;;;;;;19.20;11.10;;;;;;;0.94;100.00;101114.27;106063;1259;60997;-59
2024/02/27 03:14:49;;;;;;;22.80;12.30;;;;;;;0.93;100.00;101114.64;106590;1257;60616;-54
2024/02/27 03:17:16;;;;;;;20.00;11.10;;;;;;;0.94;100.00;101118.52;106139;1254;72654;-55
2024/02/27 03:19:43;;;;;;;29.70;11.80;;;;;;;0.93;100.00;101119.05;106076;1261;65798;-54
2024/02/27 03:22:11;;;;;;;18.90;11.50;;;;;;;0.92;100.00;101116.05;106191;1256;72728;-54
2024/02/27 03:24:39;;;;;;;19.30;11.50;;;;;;;0.91;100.00;101116.55;105997;1274;60781;-54
2024/02/27 03:27:06;;;;;;;20.30;11.50;;;;;;;0.89;100.00;101114.23;106419;1255;60488;-55
2024/02/27 03:29:34;;;;;;;21.40;11.90;;;;;;;0.86;100.00;101119.48;106085;1259;72028;-54
2024/02/27 03:32:01;;;;;;;21.70;11.90;;;;;;;0.83;100.00;101121.22;106318;1253;65793;-54
2024/02/27 03:34:29;;;;;;;24.00;12.00;;;;;;;0.79;100.00;101122.57;106181;1258;72668;-56
2024/02/27 03:36:56;;;;;;;24.30;11.60;;;;;;;0.74;100.00;101123.94;106136;1260;61388;-55
2024/02/27 03:39:24;;;;;;;25.50;11.60;;;;;;;0.70;100.00;101121.58;105895;1257;60565;-55
2024/02/27 03:41:51;;;;;;;24.00;12.00;;;;;;;0.67;100.00;101117.13;106068;1258;73779;-54
2024/02/27 03:44:18;;;;;;;24.70;12.50;;;;;;;0.64;100.00;101115.86;106034;1257;69146;-53
2024/02/27 03:46:46;;;;;;;19.80;11.10;;;;;;;0.63;100.00;101116.89;105996;1258;71405;-53
2024/02/27 03:49:13;;;;;;;23.00;10.60;;;;;;;0.62;100.00;101117.05;106031;1254;60432;-56
2024/02/27 03:51:41;;;;;;;17.90;9.30;;;;;;;0.62;100.00;101119.52;106313;1254;60677;-56
2024/02/27 03:54:08;;;;;;;23.80;12.30;;;;;;;0.63;100.00;101118.48;106133;1259;73973;-55
2024/02/27 03:56:35;;;;;;;19.90;10.40;;;;;;;0.63;100.00;101117.95;106547;1257;66233;-56
2024/02/27 03:59:03;;;;;;;25.70;11.50;;;;;;;0.64;100.00;101116.73;106153;1254;71484;-56
2024/02/27 04:01:30;;;;;;;23.80;11.90;;;;;;;0.65;100.00;101116.39;106155;1256;60537;-55
2024/02/27 04:03:57;;;;;;;26.20;11.40;;;;;;;0.64;100.00;101116.55;106318;1256;61407;-55
2024/02/27 04:06:25;;;;;;;21.00;11.90;;;;;;;0.61;100.00;101114.92;106271;1257;73817;-55
2024/02/27 04:08:52;;;;;;;21.50;10.80;;;;;;;0.59;100.00;101114.37;106115;1254;66913;-57
2024/02/27 04:11:19;;;;;;;20.70;10.30;;;;;;;0.56;100.00;101117.50;106091;1270;71262;-58
2024/02/27 04:13:47;;;;;;;23.50;12.20;;;;;;;0.53;100.00;101117.64;106152;1260;60492;-54
2024/02/27 04:16:14;;;;;;;27.90;13.10;;;;;;;0.50;100.00;101114.95;106141;1257;60485;-56
2024/02/27 04:18:42;;;;;;;21.30;11.30;;;;;;;0.47;100.00;101115.09;105942;1253;74177;-56
2024/02/27 04:21:09;;;;;;;21.70;11.00;;;;;;;0.45;100.00;101116.09;106030;1259;67628;-56
2024/02/27 04:23:38;;;;;;;21.80;10.30;;;;;;;0.43;100.00;101113.77;106123;1257;73312;-56
2024/02/27 04:26:05;;;;;;;24.30;10.60;;;;;;;0.44;100.00;101118.02;106310;1254;61378;-57
2024/02/27 04:28:32;;;;;;;20.50;8.90;;;;;;;0.45;100.00;101118.57;106063;1254;60453;-58
2024/02/27 04:31:01;;;;;;;21.90;10.10;;;;;;;0.47;100.00;101119.14;106191;1256;72495;-55
2024/02/27 04:33:28;;;;;;;21.70;10.00;;;;;;;0.49;100.00;101117.58;106235;1254;66204;-55
2024/02/27 04:35:56;;;;;;;16.50;10.10;;;;;;;0.50;100.00;101117.25;106076;1270;73553;-55
2024/02/27 04:38:23;;;;;;;17.70;10.20;;;;;;;0.52;100.00;101114.06;106179;1256;60482;-55
2024/02/27 04:40:51;;;;;;;21.60;10.60;;;;;;;0.53;100.00;101119.74;106160;1256;60690;-55
2024/02/27 04:43:18;;;;;;;20.00;10.50;;;;;;;0.53;100.00;101118.34;106203;1256;76215;-55
2024/02/27 04:45:46;;;;;;;18.10;10.30;;;;;;;0.50;100.00;101120.42;106170;1252;65618;-55
2024/02/27 04:48:13;;;;;;;19.80;11.40;;;;;;;0.48;100.00;101126.21;106108;1254;72732;-56
2024/02/27 04:50:41;;;;;;;21.00;9.50;;;;;;;0.45;100.00;101121.92;106105;1253;60687;-55
2024/02/27 04:53:08;;;;;;;24.10;11.20;;;;;;;0.42;100.00;101125.96;106031;1259;60399;-55
2024/02/27 04:55:35;;;;;;;17.70;10.40;;;;;;;0.40;100.00;101124.16;106043;1253;74733;-55
2024/02/27 04:58:03;;;;;;;14.90;9.80;;;;;;;0.37;100.00;101132.41;106084;1253;67021;-55
2024/02/27 05:00:30;;;;;;;23.40;9.10;;;;;;;0.35;100.00;101128.49;106060;1254;71735;-55
2024/02/27 05:02:58;;;;;;;21.00;10.30;;;;;;;0.34;100.00;101134.66;106079;1258;60436;-55
2024/02/27 05:05:25;;;;;;;17.70;9.00;;;;;;;0.35;100.00;101133.95;107866;1255;61394;-55
2024/02/27 05:07:53;;;;;;;20.20;9.60;;;;;;;0.36;100.00;101140.86;106009;1261;73882;-55
2024/02/27 05:10:20;;;;;;;20.50;7.90;;;;;;;0.37;100.00;101142.83;106027;1258;65635;-55
2024/02/27 05:12:47;;;;;;;14.50;8.80;;;;;;;0.38;100.00;101147.80;106121;1254;70578;-55
2024/02/27 05:15:15;;;;;;;16.90;8.50;;;;;;;0.41;100.00;101157.91;106033;1253;60589;-55
2024/02/27 05:17:43;;;;;;;16.80;9.60;;;;;;;0.43;100.00;101160.58;106079;1253;60139;-55
2024/02/27 05:20:12;;;;;;;20.70;9.30;;;;;;;0.46;100.00;101158.49;106074;1258;71839;-55
2024/02/27 05:22:39;;;;;;;16.20;9.10;;;;;;;0.47;100.00;101157.98;109000;1253;66149;-55
2024/02/27 05:25:07;;;;;;;26.80;10.30;;;;;;;0.46;100.00;101157.62;109090;1252;72329;-56
2024/02/27 05:27:34;;;;;;;16.70;10.50;;;;;;;0.46;100.00;101163.27;108566;1252;60332;-54
2024/02/27 05:30:05;;;;;;;22.20;9.80;;;;;;;0.46;100.00;101167.16;109016;1253;58974;-54
2024/02/27 05:32:33;;;;;;;18.10;9.20;;;;;;;0.46;100.00;101169.27;107031;1257;72613;-54
2024/02/27 05:35:00;;;;;;;20.80;10.10;;;;;;;0.47;100.00;101176.20;106154;1258;67059;-54
2024/02/27 05:37:28;;;;;;;18.70;8.90;;;;;;;0.50;100.00;101177.65;106023;1261;72773;-54
2024/02/27 05:39:55;;;;;;;21.60;8.80;;;;;;;0.51;100.00;101183.66;106059;1257;60455;-55
2024/02/27 05:42:22;;;;;;;18.70;7.90;;;;;;;0.54;100.00;101187.59;106108;1253;61587;-55
2024/02/27 05:44:50;;;;;;;20.20;9.60;;;;;;;0.57;100.00;101188.19;109088;1253;74273;-55
2024/02/27 05:47:17;;;;;;;21.50;9.00;;;;;;;0.62;100.00;101187.72;108968;1253;67154;-55
2024/02/27 05:49:44;;;;;;;18.40;8.60;;;;;;;0.69;100.00;101192.59;109003;1253;72759;-55
2024/02/27 05:52:12;;;;;;;15.00;8.20;;;;;;;0.76;100.00;101196.23;106595;1260;60394;-55
2024/02/27 05:54:39;;;;;;;18.70;8.90;;;;;;;0.83;100.00;101196.68;106068;1254;60442;-55
2024/02/27 05:57:09;;;;;;;14.50;7.40;;;;;;;0.90;100.00;101193.95;106867;1255;71977;-56
2024/02/27 05:59:37;;;;;;;14.40;8.40;;;;;;;0.96;100.00;101194.38;106307;1253;64974;-56
2024/02/27 06:02:05;;;;;;;18.00;8.90;;;;;;;1.00;100.00;101198.34;106068;1259;72776;-56
2024/02/27 06:04:32;;;;;;;15.30;8.20;;;;;;;1.03;100.00;101201.70;106074;1257;60487;-56
2024/02/27 06:07:00;;;;;;;22.60;10.10;;;;;;;1.04;100.00;101209.15;106046;1254;61364;-56
2024/02/27 06:09:28;;;;;;;15.60;9.00;;;;;;;1.05;100.00;101208.46;106044;1253;76108;-56
2024/02/27 06:11:55;;;;;;;14.80;8.50;;;;;;;1.06;100.00;101207.07;106793;1253;67114;-56
2024/02/27 06:14:25;;;;;;;15.50;9.10;;;;;;;1.05;100.00;101201.92;106064;1260;73613;-58
2024/02/27 06:16:53;;;;;;;20.70;8.10;;;;;;;1.06;100.00;101207.23;106047;1259;60445;-57
2024/02/27 06:19:25;;;;;;;15.00;7.50;;;;;;;1.09;100.00;101209.58;108635;1253;59337;-58
2024/02/27 06:22:14;;;;;;;18.70;7.80;;;;;;;1.12;100.00;101213.51;106173;1254;73977;-57
2024/02/27 06:24:44;;;;;;;12.30;7.40;;;;;;;1.18;100.00;101214.30;105991;1260;65870;-57
2024/02/27 06:27:12;;;;;;;17.00;7.90;;;;;;;1.22;100.00;101215.23;106405;1258;71131;-57
2024/02/27 06:29:40;;;;;;;17.80;8.70;;;;;;;1.26;100.00;101214.22;106150;1261;60565;-57
2024/02/27 06:32:10;;;;;;;15.20;7.30;;;;;;;1.29;100.00;101216.38;106013;1261;60458;-57
2024/02/27 06:34:37;;;;;;;15.00;8.60;;;;;;;1.32;100.00;101216.78;105949;1254;72606;-57
2024/02/27 06:37:05;;;;;;;14.00;8.40;;;;;;;1.34;100.00;101219.80;105907;1254;66272;-56
2024/02/27 06:39:33;;;;;;;17.10;8.90;;;;;;;1.35;100.00;101220.35;105901;1258;71425;-57
2024/02/27 06:42:00;;;;;;;13.90;8.00;;;;;;;1.36;100.00;101221.60;106175;1254;61688;-56
2024/02/27 06:44:28;;;;;;;15.90;8.90;;;;;;;1.36;100.00;101225.14;106037;1259;60332;-56
2024/02/27 06:46:55;;;;;;;18.20;8.00;;;;;;;1.36;100.00;101221.96;106014;1253;77332;-57
2024/02/27 06:49:23;;;;;;;15.90;8.10;;;;;;;1.37;100.00;101220.89;106076;1259;67192;-58
2024/02/27 06:51:50;;;;;;;15.70;8.50;;;;;;;1.40;100.00;101220.23;106349;1253;70706;-57
2024/02/27 06:54:18;;;;;;;17.40;7.90;;;;;;;1.45;100.00;101215.34;106136;1259;60316;-57
2024/02/27 06:56:46;;;;;;;15.50;7.30;;;;;;;1.51;100.00;101215.95;106346;1256;60546;-58
2024/02/27 06:59:13;;;;;;;17.30;8.30;;;;;;;1.58;100.00;101218.15;106076;1256;72830;-57
2024/02/27 07:01:40;;;;;;;20.10;8.50;;;;;;;1.66;100.00;101217.53;106214;1259;66123;-57
2024/02/27 07:04:08;;;;;;;16.30;7.50;;;;;;;1.77;100.00;101222.07;106438;1256;71451;-57
2024/02/27 07:06:35;;;;;;;13.80;7.50;;;;;;;1.86;100.00;101229.61;106092;1254;60544;-58
2024/02/27 07:09:04;;;;;;;15.90;8.60;;;;;;;1.96;100.00;101230.77;106966;1259;60294;-58
2024/02/27 07:11:33;;;;;;;14.50;8.00;;;;;;;2.02;100.00;101231.18;106288;1259;73886;-59
2024/02/27 07:14:01;;;;;;;15.50;8.00;;;;;;;2.06;100.00;101236.35;106132;1256;66050;-58
2024/02/27 07:16:28;;;;;;;19.00;7.60;;;;;;;2.10;100.00;101233.58;106325;1254;72658;-57
2024/02/27 07:18:55;;;;;;;17.10;7.10;;;;;;;2.14;100.00;101235.55;106139;1254;60477;-58
2024/02/27 07:21:23;;;;;;;11.10;5.80;;;;;;;2.20;100.00;101235.79;106027;1260;61424;-58
2024/02/27 07:23:51;;;;;;;13.60;6.90;;;;;;;2.26;100.00;101240.27;106106;1256;74077;-58
2024/02/27 07:26:19;;;;;;;16.60;7.80;;;;;;;2.33;100.00;101240.15;106175;1261;66915;-58
2024/02/27 07:28:47;;;;;;;15.70;7.10;;;;;;;2.42;100.00;101239.86;106310;1257;71012;-58
2024/02/27 07:31:17;;;;;;;17.40;6.50;;;;;;;2.50;100.00;101244.20;106100;1260;60542;-58
2024/02/27 07:33:45;;;;;;;10.60;6.80;;;;;;;2.60;100.00;101253.84;106250;1254;60430;-58
2024/02/27 07:36:13;;;;;;;17.70;7.90;;;;;;;2.66;100.00;101256.18;106207;1256;72933;-58
2024/02/27 07:38:40;;;;;;;12.50;7.40;;;;;;;2.70;100.00;101260.11;106168;1254;68814;-57
2024/02/27 07:41:10;;;;;;;17.20;7.30;;;;;;;2.73;100.00;101262.62;106223;1256;73813;-59
2024/02/27 07:43:37;;;;;;;14.30;6.90;;;;;;;2.77;100.00;101259.46;108921;1253;58955;-59
2024/02/27 07:46:05;;;;;;;15.70;7.90;;;;;;;2.81;100.00;101260.02;107518;1257;60381;-58
2024/02/27 07:48:33;;;;;;;17.60;7.70;;;;;;;2.84;100.00;101259.68;106053;1259;72995;-57
2024/02/27 07:51:00;;;;;;;23.80;7.30;;;;;;;2.87;100.00;101265.58;106035;1260;67822;-58
2024/02/27 07:53:27;;;;;;;14.80;6.00;;;;;;;2.93;100.00;101263.83;105963;1254;71417;-58
2024/02/27 07:55:55;;;;;;;18.30;6.90;;;;;;;3.02;100.00;101268.69;106014;1256;60391;-59
2024/02/27 07:58:23;;;;;;;13.80;5.90;;;;;;;3.11;100.00;101274.23;106216;1254;61454;-57
2024/02/27 08:00:50;;;;;;;15.00;6.90;;;;;;;3.21;100.00;101272.34;106057;1258;74213;-57
2024/02/27 08:03:20;;;;;;;13.90;7.40;;;;;;;3.32;100.00;101279.31;107021;1254;65926;-58
2024/02/27 08:05:48;;;;;;;13.40;6.70;;;;;;;3.41;100.00;101279.01;107166;1257;71957;-57
2024/02/27 08:08:16;;;;;;;14.50;8.10;;;;;;;3.47;100.00;101277.80;106038;1259;60595;-57
2024/02/27 08:10:43;;;;;;;15.00;7.20;;;;;;;3.53;100.00;101281.73;106104;1258;60445;-54
2024/02/27 08:13:11;;;;;;;14.90;6.30;;;;;;;3.59;100.00;101281.94;106093;1257;73973;-55
2024/02/27 08:15:38;;;;;;;17.50;8.10;;;;;;;3.67;100.00;101282.33;106097;1258;65891;-56
2024/02/27 08:18:06;;;;;;;12.20;7.00;;;;;;;3.76;100.00;101283.78;106015;1271;72682;-55
2024/02/27 08:20:34;;;;;;;13.90;7.30;;;;;;;3.84;100.00;101289.50;106075;1256;61288;-55
2024/02/27 08:23:01;;;;;;;18.30;7.00;;;;;;;3.92;100.00;101290.77;106116;1261;61187;-57
2024/02/27 08:25:28;;;;;;;8.20;5.30;;;;;;;3.99;100.00;101290.60;106023;1258;74943;-58
2024/02/27 08:27:56;;;;;;;8.40;5.30;;;;;;;4.07;100.00;101292.23;106029;1259;67108;-58
2024/02/27 08:30:23;;;;;;;8.30;5.00;;;;;;;4.17;100.00;101296.87;106026;1256;72007;-57
2024/02/27 08:32:51;;;;;;;10.40;4.50;;;;;;;4.27;100.00;101298.85;106914;1253;60228;-57
2024/02/27 08:35:21;;;;;;;14.50;4.80;;;;;;;4.40;100.00;101308.63;106171;1254;60659;-58
2024/02/27 08:37:48;;;;;;;9.60;4.10;;;;;;;4.52;100.00;101314.70;106096;1256;73979;-57
2024/02/27 08:40:16;;;;;;;13.00;4.70;;;;;;;4.63;100.00;101317.73;106001;1253;65997;-58
2024/02/27 08:42:43;;;;;;;8.00;4.50;;;;;;;4.71;100.00;101325.74;105976;1256;72732;-57
2024/02/27 08:45:11;;;;;;;9.20;3.30;;;;;;;4.80;100.00;101330.73;106268;1255;61314;-58
2024/02/27 08:47:38;;;;;;;10.20;2.60;;;;;;;4.90;100.00;101331.97;106112;1256;61270;-57
2024/02/27 08:50:06;;;;;;;12.70;4.00;;;;;;;5.00;100.00;101334.28;106164;1256;73260;-57
2024/02/27 08:52:34;;;;;;;9.60;2.70;;;;;;;5.10;100.00;101338.90;106150;1258;65700;-57
2024/02/27 08:55:02;;;;;;;5.80;3.00;;;;;;;5.19;100.00;101343.52;106113;1256;71774;-57
2024/02/27 08:57:29;;;;;;;7.40;3.40;;;;;;;5.26;100.00;101346.17;106163;1257;61456;-58
2024/02/27 08:59:57;;;;;;;4.70;2.10;;;;;;;5.33;100.00;101347.42;106119;1253;60607;-56
2024/02/27 09:02:24;;;;;;;8.30;2.60;;;;;;;5.40;100.00;101346.69;106073;1257;74524;-56
2024/02/27 09:04:52;;;;;;;9.10;2.50;;;;;;;5.47;100.00;101347.56;106038;1265;65855;-54
2024/02/27 09:07:19;;;;;;;4.60;1.60;;;;;;;5.54;100.00;101348.80;106108;1258;72731;-57
2024/02/27 09:09:47;;;;;;;5.20;2.00;;;;;;;5.60;100.00;101347.70;106418;1253;60654;-55
2024/02/27 09:12:16;;;;;;;6.20;2.00;;;;;;;5.68;100.00;101350.54;106202;1259;60550;-58
2024/02/27 09:14:44;;;;;;;7.30;2.00;;;;;;;5.76;100.00;101349.27;106112;1258;72628;-56
2024/02/27 09:17:11;;;;;;;8.20;2.80;;;;;;;5.82;100.00;101347.11;106135;1253;65817;-56
2024/02/27 09:19:39;;;;;;;3.30;1.60;;;;;;;5.90;100.00;101357.08;106565;1253;70891;-57
2024/02/27 09:22:06;;;;;;;8.30;2.10;;;;;;;5.97;100.00;101358.13;106082;1257;60546;-55
2024/02/27 09:24:33;;;;;;;5.70;1.30;;;;;;;6.03;100.00;101351.15;106154;1254;60300;-55
2024/02/27 09:27:01;;;;;;;7.80;1.30;;;;;;;6.10;100.00;101353.27;105976;1256;73925;-56
2024/02/27 09:29:32;;;;;;;6.70;2.10;;;;;;;6.16;100.00;101353.59;106184;1253;65516;-56
2024/02/27 09:31:59;;;;;;;6.70;1.40;;;;;;;6.22;100.00;101357.83;106011;1258;71317;-56
2024/02/27 09:34:26;;;;;;;5.40;1.80;;;;;;;6.28;100.00;101353.35;106038;1253;61489;-55
2024/02/27 09:36:54;;;;;;;6.00;1.10;;;;;;;6.33;100.00;101347.61;105955;1258;60474;-55
2024/02/27 09:39:21;;;;;;;8.30;1.80;;;;;;;6.38;100.00;101351.85;105954;1258;73919;-55
2024/02/27 09:42:05;;;;;;;11.30;3.50;;;;;;;6.44;100.00;101353.26;106081;1259;64731;-55
2024/02/27 09:44:33;;;;;;;101.00;69.60;;;;;;;6.50;100.00;101352.86;105956;1269;70865;-57
2024/02/27 09:47:00;;;;;;;44.40;32.30;;;;;;;6.56;100.00;101349.79;106052;1254;60987;-56
2024/02/27 09:49:27;;;;;;;44.50;26.70;;;;;;;6.64;100.00;101353.65;105962;1262;60459;-55
2024/02/27 09:52:14;;;;;;;9.80;5.40;;;;;;;6.72;100.00;101355.56;105975;1253;73901;-56
2024/02/27 09:54:42;;;;;;;11.60;3.00;;;;;;;6.79;100.00;101356.05;106110;1259;68450;-56
2024/02/27 09:57:13;;;;;;;7.00;1.70;;;;;;;6.85;100.00;101364.21;106426;1253;72705;-56
2024/02/27 09:59:41;;;;;;;6.10;2.20;;;;;;;6.91;100.00;101361.13;105998;1253;60495;-55
2024/02/27 10:02:11;;;;;;;7.50;3.00;;;;;;;6.97;100.00;101360.20;106503;1253;60509;-56
2024/02/27 10:04:39;;;;;;;10.10;3.00;;;;;;;7.04;100.00;101356.76;106272;1253;73904;-56
2024/02/27 10:07:08;;;;;;;6.10;2.50;;;;;;;7.10;100.00;101355.09;107938;1254;67412;-56
2024/02/27 10:09:45;;;;;;;2.70;1.10;;;;;;;7.17;100.00;101356.09;108495;1258;72767;-55
2024/02/27 10:12:13;;;;;;;5.60;1.50;;;;;;;7.24;100.00;101359.08;107364;1260;59628;-57
2024/02/27 10:14:41;;;;;;;5.00;1.10;;;;;;;7.28;100.00;101354.38;106235;1258;60502;-58
2024/02/27 10:17:09;;;;;;;11.00;1.50;;;;;;;7.33;100.00;101355.58;106273;1258;73003;-58
2024/02/27 10:19:36;;;;;;;4.90;1.40;;;;;;;7.37;100.00;101358.59;106011;1259;67077;-58
2024/02/27 10:22:05;;;;;;;5.40;1.30;;;;;;;7.40;100.00;101358.55;106559;1259;71721;-58
2024/02/27 10:24:32;;;;;;;4.40;1.70;;;;;;;7.45;100.00;101365.48;107562;1255;60851;-57
2024/02/27 10:27:02;;;;;;;6.30;1.50;;;;;;;7.50;100.00;101363.09;106025;1253;62374;-58
2024/02/27 10:29:31;;;;;;;7.30;1.30;;;;;;;7.54;100.00;101358.41;106219;1256;72638;-59
2024/02/27 10:31:58;;;;;;;12.80;1.90;;;;;;;7.57;100.00;101355.35;106136;1258;67143;-58
2024/02/27 10:34:27;;;;;;;4.00;1.70;;;;;;;7.62;100.00;101355.30;106025;1258;72776;-57
2024/02/27 10:36:59;;;;;;;7.60;2.30;;;;;;;7.68;100.00;101353.44;106278;1255;60464;-57
2024/02/27 10:39:27;;;;;;;6.40;1.00;;;;;;;7.72;100.00;101358.94;106026;1260;60502;-58
2024/02/27 10:41:55;;;;;;;5.80;1.10;;;;;;;7.76;100.00;101360.13;106088;1253;76089;-58
2024/02/27 10:44:23;;;;;;;4.70;1.50;;;;;;;7.80;100.00;101361.35;106006;1256;67145;-57
2024/02/27 10:46:50;;;;;;;5.40;1.20;;;;;;;7.84;100.00;101368.97;106023;1253;73123;-57
2024/02/27 10:49:18;;;;;;;4.80;1.20;;;;;;;7.87;100.00;101373.23;105962;1260;61424;-56
2024/02/27 10:51:46;;;;;;;6.30;1.30;;;;;;;7.90;100.00;101373.91;108882;1254;60290;-58
2024/02/27 10:54:16;;;;;;;3.10;1.30;;;;;;;7.95;100.00;101376.17;107822;1256;73915;-59
2024/02/27 10:56:44;;;;;;;5.00;1.30;;;;;;;7.99;100.00;101376.48;109260;1252;65452;-56
2024/02/27 10:59:12;;;;;;;2.90;1.10;;;;;;;8.03;100.00;101378.40;107339;1256;71464;-58
2024/02/27 11:01:40;;;;;;;3.20;1.40;;;;;;;8.07;100.00;101379.27;106016;1259;60710;-59
2024/02/27 11:04:17;;;;;;;5.20;1.40;;;;;;;8.10;100.00;101382.42;109036;1253;179513;-58
2024/02/27 11:08:23;;;;;;;15.00;7.20;;;;;;;8.15;100.00;101435.65;102551;1299;600508;-57
2024/02/27 11:10:50;;;;;;;103.50;70.30;;;;;;;8.16;100.00;101442.45;105006;1269;59849;-57